Time;durP1;ratioP1;P1;durP2;ratioP2;P2;SDS_P1;SDS_P2;PMS_P1;PMS_P2;Temp;Humidity;BMP_temperature;BMP_pressure;BME280_temperature;BME280_humidity;BME280_pressure;Samples;Min_cycle;Max_cycle;Signal;HPM_P1;HPM_P2
2021/12/10 00:02:03;;;;;;;26.05;15.32;;;4.60;99.90;;;;;;5113277;28;20084;-66
2021/12/10 00:04:32;;;;;;;33.92;18.10;;;4.70;99.90;;;;;;5105760;28;20048;-64
2021/12/10 00:07:03;;;;;;;33.50;17.80;;;4.70;99.90;;;;;;5112610;28;20051;-64
2021/12/10 00:09:34;;;;;;;35.65;20.17;;;4.70;99.90;;;;;;5113241;28;20450;-63
2021/12/10 00:12:06;;;;;;;30.05;18.10;;;4.70;99.90;;;;;;5129840;27;20040;-64
2021/12/10 00:14:34;;;;;;;39.13;19.02;;;4.70;99.90;;;;;;5114137;28;20100;-65
2021/12/10 00:17:02;;;;;;;32.75;18.63;;;4.90;99.90;;;;;;5112685;28;20138;-64
2021/12/10 00:19:39;;;;;;;28.85;14.82;;;4.60;99.90;;;;;;5112893;28;20051;-64
2021/12/10 00:22:10;;;;;;;33.10;15.95;;;4.60;99.90;;;;;;5112773;28;20093;-64
2021/12/10 00:24:38;;;;;;;29.65;16.67;;;4.70;99.90;;;;;;5112000;28;20051;-64
2021/12/10 00:27:07;;;;;;;29.70;13.98;;;4.60;99.90;;;;;;5114036;28;20134;-65
2021/12/10 00:29:35;;;;;;;28.13;16.67;;;4.70;99.90;;;;;;5113923;28;20051;-65
2021/12/10 00:32:17;;;;;;;33.67;18.35;;;4.70;99.90;;;;;;5112307;28;20043;-65
2021/12/10 00:34:47;;;;;;;29.45;16.50;;;4.70;99.90;;;;;;5112341;28;20138;-64
2021/12/10 00:37:16;;;;;;;24.38;14.15;;;4.80;99.90;;;;;;5112502;28;20058;-67
2021/12/10 00:39:52;;;;;;;47.50;17.38;;;4.70;99.90;;;;;;5111856;28;20047;-65
2021/12/10 00:42:24;;;;;;;32.65;17.50;;;4.70;99.90;;;;;;5112184;28;20461;-65
2021/12/10 00:44:50;;;;;;;33.50;17.15;;;4.70;99.90;;;;;;5113310;28;20047;-65
2021/12/10 00:47:16;;;;;;;30.67;17.35;;;4.70;99.90;;;;;;5112616;28;20040;-65
2021/12/10 00:49:42;;;;;;;29.42;14.70;;;4.70;99.90;;;;;;5111966;28;20514;-70
2021/12/10 00:52:10;;;;;;;21.23;10.48;;;4.70;99.90;;;;;;5112173;28;20051;-64
2021/12/10 00:54:36;;;;;;;29.05;16.45;;;4.80;99.90;;;;;;5112424;28;20055;-64
2021/12/10 00:57:02;;;;;;;29.17;14.05;;;4.80;99.90;;;;;;5111486;28;20484;-66
2021/12/10 00:59:28;;;;;;;23.33;10.55;;;4.70;99.90;;;;;;5112393;28;20051;-64
2021/12/10 01:01:54;;;;;;;32.85;17.02;;;4.70;99.90;;;;;;5112696;28;20043;-65
2021/12/10 01:04:32;;;;;;;29.70;16.10;;;4.70;99.90;;;;;;5128841;27;20071;-65
2021/12/10 01:07:01;;;;;;;29.02;13.52;;;4.70;99.90;;;;;;5111839;28;20119;-65
2021/12/10 01:09:33;;;;;;;26.65;15.20;;;4.70;99.90;;;;;;5112513;28;20043;-64
2021/12/10 01:12:11;;;;;;;26.45;14.55;;;4.70;99.90;;;;;;5112567;28;20481;-65
2021/12/10 01:26:06;;;;;;;21.67;12.10;;;4.70;99.90;;;;;;5111373;28;20094;-66
2021/12/10 01:28:32;;;;;;;32.58;14.23;;;4.70;99.90;;;;;;5097081;28;20047;-66
2021/12/10 01:30:58;;;;;;;29.88;14.95;;;4.70;99.90;;;;;;5112348;28;20055;-65
2021/12/10 01:33:23;;;;;;;31.55;14.57;;;4.70;99.90;;;;;;5111374;28;20439;-65
2021/12/10 01:35:54;;;;;;;23.13;14.43;;;4.70;99.90;;;;;;5112262;28;20073;-67
2021/12/10 01:38:21;;;;;;;25.35;13.48;;;4.70;99.90;;;;;;5111580;28;20096;-65
2021/12/10 01:40:52;;;;;;;22.52;13.52;;;4.80;99.90;;;;;;5112411;28;20050;-70
2021/12/10 01:43:25;;;;;;;26.00;12.63;;;4.80;99.90;;;;;;5112543;28;20096;-66
2021/12/10 01:46:01;;;;;;;28.00;15.52;;;4.70;99.90;;;;;;5111266;28;20044;-66
2021/12/10 01:48:32;;;;;;;27.63;11.52;;;4.70;99.90;;;;;;5112228;28;20048;-59
2021/12/10 01:51:00;;;;;;;26.52;12.70;;;4.70;99.90;;;;;;5110666;28;20100;-59
2021/12/10 01:53:29;;;;;;;21.63;9.93;;;4.70;99.90;;;;;;5094125;28;20047;-59
2021/12/10 01:56:00;;;;;;;22.77;13.38;;;4.80;99.90;;;;;;5110690;28;20052;-59
2021/12/10 01:58:28;;;;;;;28.80;14.77;;;4.70;99.90;;;;;;5112082;28;20400;-59
2021/12/10 02:00:58;;;;;;;27.77;13.07;;;4.80;99.90;;;;;;5110443;28;20054;-59
2021/12/10 02:03:25;;;;;;;22.35;12.68;;;4.80;99.90;;;;;;5112044;28;20504;-59
2021/12/10 02:05:51;;;;;;;24.48;12.00;;;4.80;99.90;;;;;;5111847;28;20081;-62
2021/12/10 02:08:17;;;;;;;18.83;11.32;;;4.80;99.90;;;;;;5111793;28;20051;-59
2021/12/10 02:10:43;;;;;;;23.83;12.20;;;4.80;99.90;;;;;;5127446;27;20695;-59
2021/12/10 02:13:09;;;;;;;23.85;12.70;;;4.80;99.90;;;;;;5111534;28;20047;-59
2021/12/10 02:15:35;;;;;;;30.58;13.65;;;4.80;99.90;;;;;;5127844;27;20050;-59
2021/12/10 02:18:02;;;;;;;27.13;13.45;;;4.70;99.90;;;;;;5111346;28;20062;-59
2021/12/10 02:20:53;;;;;;;23.80;12.07;;;4.70;99.90;;;;;;5110669;28;20081;-59
2021/12/10 02:23:21;;;;;;;24.83;13.60;;;4.80;99.90;;;;;;5073088;28;20056;-60
2021/12/10 02:25:48;;;;;;;25.38;12.25;;;4.70;99.90;;;;;;5110815;28;20051;-59
2021/12/10 02:28:15;;;;;;;24.40;13.55;;;4.70;99.90;;;;;;5093443;28;20060;-59
2021/12/10 02:30:41;;;;;;;29.33;12.48;;;4.70;99.90;;;;;;5110537;28;20083;-60
2021/12/10 02:33:09;;;;;;;22.17;12.40;;;4.70;99.90;;;;;;5111333;28;20043;-59
2021/12/10 02:35:35;;;;;;;20.02;9.55;;;4.70;99.90;;;;;;5110754;28;20204;-59
2021/12/10 02:38:01;;;;;;;19.38;10.75;;;4.70;99.90;;;;;;5110031;28;20122;-59
2021/12/10 02:40:30;;;;;;;19.52;10.70;;;4.70;99.90;;;;;;5110628;28;20499;-59
2021/12/10 02:42:58;;;;;;;20.95;10.00;;;4.70;99.90;;;;;;5093797;28;20058;-61
2021/12/10 02:45:25;;;;;;;21.25;10.88;;;4.70;99.90;;;;;;5093716;28;20461;-59
2021/12/10 02:47:52;;;;;;;20.27;11.18;;;4.70;99.90;;;;;;5110638;28;20047;-59
2021/12/10 02:50:22;;;;;;;23.60;12.15;;;4.70;99.90;;;;;;5126986;28;20043;-59
2021/12/10 02:52:48;;;;;;;18.42;9.95;;;4.70;99.90;;;;;;5110593;28;20456;-59
2021/12/10 02:55:15;;;;;;;22.60;13.70;;;4.80;99.90;;;;;;5111125;28;20048;-59
2021/12/10 02:57:47;;;;;;;19.65;10.38;;;4.70;99.90;;;;;;5110354;28;20056;-59
2021/12/10 03:00:17;;;;;;;24.80;11.00;;;4.60;99.90;;;;;;5109887;28;20044;-59
2021/12/10 03:02:42;;;;;;;19.58;9.30;;;4.60;99.90;;;;;;5111445;28;20126;-59
2021/12/10 03:05:10;;;;;;;21.05;9.15;;;4.60;99.90;;;;;;5126429;28;20139;-59
2021/12/10 03:07:38;;;;;;;25.75;9.43;;;4.70;99.90;;;;;;5110530;28;20044;-59
2021/12/10 03:10:07;;;;;;;22.40;10.15;;;4.70;99.90;;;;;;5109582;28;20097;-59
2021/12/10 03:12:36;;;;;;;19.45;9.10;;;4.60;99.90;;;;;;5126931;28;20048;-58
2021/12/10 03:15:03;;;;;;;23.20;10.82;;;4.60;99.90;;;;;;5109921;28;20507;-60
2021/12/10 03:17:31;;;;;;;23.15;10.23;;;4.60;99.90;;;;;;5110957;28;20573;-59
2021/12/10 03:19:58;;;;;;;16.95;8.73;;;4.60;99.90;;;;;;5111459;28;20512;-58
2021/12/10 03:22:25;;;;;;;16.48;8.60;;;4.60;99.90;;;;;;5126240;28;20110;-59
2021/12/10 03:24:52;;;;;;;23.70;12.40;;;4.60;99.90;;;;;;5109917;28;20091;-59
2021/12/10 03:27:20;;;;;;;23.25;12.43;;;4.60;99.90;;;;;;5110877;28;20055;-58
2021/12/10 03:29:46;;;;;;;22.60;10.05;;;4.50;99.90;;;;;;5111217;28;20067;-59
2021/12/10 03:32:16;;;;;;;19.40;10.70;;;4.50;99.90;;;;;;5112726;28;20044;-59
2021/12/10 03:34:42;;;;;;;18.77;11.05;;;4.50;99.90;;;;;;5130952;27;20053;-59
2021/12/10 03:37:08;;;;;;;18.58;10.23;;;4.50;99.90;;;;;;5130154;27;20134;-59
2021/12/10 03:39:34;;;;;;;19.50;10.68;;;4.50;99.90;;;;;;5113401;28;20055;-60
2021/12/10 03:42:02;;;;;;;18.70;10.07;;;4.50;99.90;;;;;;5114551;28;20044;-59
2021/12/10 03:44:28;;;;;;;22.42;11.75;;;4.50;99.90;;;;;;5114434;28;20043;-59
2021/12/10 03:46:55;;;;;;;20.20;10.02;;;4.50;99.90;;;;;;5113628;28;20128;-59
2021/12/10 03:49:21;;;;;;;18.55;9.65;;;4.50;99.90;;;;;;5112682;28;20119;-59
2021/12/10 03:51:47;;;;;;;20.35;9.70;;;4.50;99.90;;;;;;5114568;27;20044;-59
2021/12/10 03:54:16;;;;;;;20.45;10.70;;;4.40;99.90;;;;;;5112993;28;20051;-59
2021/12/10 03:56:42;;;;;;;19.77;11.90;;;4.40;99.90;;;;;;5096430;28;20404;-60
2021/12/10 03:59:12;;;;;;;17.60;10.50;;;4.40;99.90;;;;;;5129847;27;20044;-60
2021/12/10 04:01:42;;;;;;;23.52;11.77;;;4.40;99.90;;;;;;5130181;27;20044;-58
2021/12/10 04:04:12;;;;;;;18.95;7.93;;;4.40;99.90;;;;;;5129249;27;20047;-61
2021/12/10 04:06:38;;;;;;;17.33;10.27;;;4.40;99.90;;;;;;5114383;28;20417;-59
2021/12/10 04:09:05;;;;;;;17.73;9.38;;;4.40;99.90;;;;;;5112865;28;20059;-59
2021/12/10 04:11:32;;;;;;;20.52;10.57;;;4.40;99.90;;;;;;5113742;28;20044;-59
2021/12/10 04:13:58;;;;;;;13.63;8.45;;;4.40;99.90;;;;;;5112732;28;20059;-60
2021/12/10 04:16:28;;;;;;;23.75;11.80;;;4.40;99.90;;;;;;5129510;27;20047;-60
2021/12/10 04:18:56;;;;;;;16.23;10.50;;;4.40;99.90;;;;;;5114017;28;20051;-59
2021/12/10 04:21:22;;;;;;;19.70;9.38;;;4.40;99.90;;;;;;5112999;28;20070;-59
2021/12/10 04:23:49;;;;;;;16.55;9.85;;;4.40;99.90;;;;;;5113988;28;20048;-59
2021/12/10 04:26:18;;;;;;;16.40;9.15;;;4.40;99.90;;;;;;5095179;28;20495;-59
2021/12/10 04:28:44;;;;;;;20.30;10.70;;;4.40;99.90;;;;;;5113700;28;20055;-59
2021/12/10 04:31:10;;;;;;;23.23;12.48;;;4.40;99.90;;;;;;5112442;28;20401;-61
2021/12/10 04:33:36;;;;;;;18.73;10.43;;;4.40;99.90;;;;;;5113754;27;20048;-59
2021/12/10 04:36:04;;;;;;;23.10;12.75;;;4.40;99.90;;;;;;5095714;28;20050;-59
2021/12/10 04:38:33;;;;;;;18.10;10.38;;;4.40;99.90;;;;;;5112198;28;20043;-59
2021/12/10 04:41:01;;;;;;;21.02;11.52;;;4.40;99.90;;;;;;5112340;28;20048;-60
2021/12/10 04:43:28;;;;;;;19.23;11.75;;;4.40;99.90;;;;;;5110944;28;20516;-59
2021/12/10 04:45:58;;;;;;;16.42;11.98;;;4.40;99.90;;;;;;5113453;28;20125;-59
2021/12/10 04:48:25;;;;;;;19.80;12.00;;;4.40;99.90;;;;;;5112759;28;20044;-59
2021/12/10 04:50:51;;;;;;;25.75;15.90;;;4.30;99.90;;;;;;5113442;28;20430;-59
2021/12/10 04:53:17;;;;;;;19.10;12.70;;;4.30;99.90;;;;;;5112857;28;20046;-59
2021/12/10 04:55:44;;;;;;;25.17;15.88;;;4.30;99.90;;;;;;5113327;28;20412;-59
2021/12/10 04:58:10;;;;;;;20.65;13.15;;;4.30;99.90;;;;;;5113074;28;20189;-59
2021/12/10 05:00:40;;;;;;;27.58;14.38;;;4.20;99.90;;;;;;5111682;28;20040;-59
2021/12/10 05:03:08;;;;;;;22.33;15.48;;;4.20;99.90;;;;;;5111846;28;20073;-59
2021/12/10 05:05:35;;;;;;;21.30;14.00;;;4.10;99.90;;;;;;5112521;28;20121;-59
2021/12/10 05:08:01;;;;;;;20.33;14.07;;;4.00;99.90;;;;;;5095216;28;20051;-59
2021/12/10 05:10:27;;;;;;;15.13;10.60;;;4.00;99.90;;;;;;5112512;27;20039;-59
2021/12/10 05:12:53;;;;;;;23.45;14.90;;;4.00;99.90;;;;;;5113014;28;20051;-59
2021/12/10 05:15:23;;;;;;;22.77;13.95;;;3.90;99.90;;;;;;5111463;28;20055;-59
2021/12/10 05:17:50;;;;;;;25.02;16.45;;;3.80;99.90;;;;;;5112685;28;20050;-59
2021/12/10 05:20:21;;;;;;;24.25;12.68;;;3.80;99.90;;;;;;5111288;28;20054;-62
2021/12/10 05:22:48;;;;;;;22.67;14.23;;;3.80;99.90;;;;;;5111524;28;20035;-59
2021/12/10 05:25:15;;;;;;;25.98;15.93;;;3.70;99.90;;;;;;5111667;28;20053;-59
2021/12/10 05:27:41;;;;;;;26.58;15.63;;;3.60;99.90;;;;;;5094259;28;20044;-59
2021/12/10 05:30:11;;;;;;;20.55;13.88;;;3.60;99.90;;;;;;5112532;28;20035;-59
2021/12/10 05:32:37;;;;;;;25.15;14.73;;;3.60;99.90;;;;;;5112222;28;20039;-59
2021/12/10 05:35:04;;;;;;;22.77;15.13;;;3.50;99.90;;;;;;5111555;28;20050;-59
2021/12/10 05:37:30;;;;;;;30.10;16.67;;;3.50;99.90;;;;;;5112228;28;20127;-59
2021/12/10 05:39:56;;;;;;;19.67;13.48;;;3.50;99.90;;;;;;5111232;28;20487;-59
2021/12/10 05:42:22;;;;;;;21.75;12.38;;;3.50;99.90;;;;;;5111833;28;20123;-59
2021/12/10 05:44:47;;;;;;;19.98;13.35;;;3.50;99.90;;;;;;5112426;28;20049;-59
2021/12/10 05:47:14;;;;;;;21.80;13.70;;;3.40;99.90;;;;;;5111268;28;20071;-59
2021/12/10 05:49:40;;;;;;;22.50;12.48;;;3.40;99.90;;;;;;5111786;28;20043;-59
2021/12/10 05:52:06;;;;;;;22.27;12.18;;;3.30;99.90;;;;;;5112137;28;20477;-59
2021/12/10 05:54:32;;;;;;;21.77;13.70;;;3.30;99.90;;;;;;5110149;28;20043;-59
2021/12/10 05:56:58;;;;;;;24.50;14.00;;;3.30;99.90;;;;;;5112064;28;20062;-59
2021/12/10 05:59:24;;;;;;;25.75;14.55;;;3.30;99.90;;;;;;5111518;28;20051;-59
2021/12/10 06:01:50;;;;;;;22.98;14.07;;;3.30;99.90;;;;;;5111950;28;20143;-60
2021/12/10 06:04:21;;;;;;;27.27;16.30;;;3.20;99.90;;;;;;5093983;28;20047;-59
2021/12/10 06:06:46;;;;;;;28.70;15.27;;;3.20;99.90;;;;;;5112053;28;20074;-59
2021/12/10 06:09:12;;;;;;;23.35;14.02;;;3.20;99.90;;;;;;5110713;28;20496;-59
2021/12/10 06:11:38;;;;;;;25.77;15.10;;;3.20;99.90;;;;;;5110407;28;20053;-59
2021/12/10 06:14:04;;;;;;;24.55;16.58;;;3.20;99.90;;;;;;5111804;28;20145;-59
2021/12/10 06:16:30;;;;;;;31.42;16.88;;;3.10;99.90;;;;;;5110502;28;20104;-59
2021/12/10 06:18:57;;;;;;;27.25;15.88;;;3.10;99.90;;;;;;5111626;28;20051;-59
2021/12/10 06:21:23;;;;;;;24.83;16.13;;;3.10;99.90;;;;;;5111424;28;20087;-61
2021/12/10 06:23:49;;;;;;;27.98;15.48;;;3.10;99.90;;;;;;5110255;28;20089;-59
2021/12/10 06:26:16;;;;;;;29.48;19.85;;;3.20;99.90;;;;;;5093839;28;20070;-59
2021/12/10 06:28:44;;;;;;;26.00;15.27;;;3.20;99.90;;;;;;5127369;28;20051;-59
2021/12/10 06:31:11;;;;;;;23.90;14.20;;;3.20;99.90;;;;;;5111705;28;20047;-58
2021/12/10 06:33:37;;;;;;;28.77;17.27;;;3.10;99.90;;;;;;5110307;28;20047;-59
2021/12/10 06:36:05;;;;;;;25.20;14.25;;;3.10;99.90;;;;;;5111891;28;20105;-59
2021/12/10 06:38:31;;;;;;;26.27;16.45;;;3.10;99.90;;;;;;5110149;28;20111;-59
2021/12/10 06:40:57;;;;;;;23.20;14.85;;;3.20;99.90;;;;;;5127374;28;20122;-59
2021/12/10 06:43:23;;;;;;;20.13;12.45;;;3.20;99.90;;;;;;5111746;28;20146;-59
2021/12/10 06:45:51;;;;;;;21.48;13.75;;;3.20;99.90;;;;;;5111378;28;20059;-59
2021/12/10 06:48:19;;;;;;;23.00;14.63;;;3.20;99.90;;;;;;5111818;28;20047;-59
2021/12/10 06:50:49;;;;;;;20.73;13.70;;;3.20;99.90;;;;;;5110301;28;20040;-59
2021/12/10 06:53:16;;;;;;;22.10;14.30;;;3.20;99.90;;;;;;5110555;28;20173;-59
2021/12/10 06:55:42;;;;;;;22.00;14.60;;;3.20;99.90;;;;;;5110225;28;20040;-58
2021/12/10 06:58:08;;;;;;;22.10;13.63;;;3.20;99.90;;;;;;5110480;28;20503;-58
2021/12/10 07:00:45;;;;;;;32.63;13.20;;;3.20;99.90;;;;;;5110175;28;20545;-59
2021/12/10 07:03:13;;;;;;;20.38;12.35;;;3.20;99.90;;;;;;5110688;28;20116;-58
2021/12/10 07:05:39;;;;;;;20.17;11.30;;;3.10;99.90;;;;;;5111086;28;20396;-59
2021/12/10 07:08:06;;;;;;;17.85;11.52;;;3.10;99.90;;;;;;5115250;28;20047;-59
2021/12/10 07:10:32;;;;;;;17.13;11.93;;;3.10;99.90;;;;;;5114008;28;20055;-59
2021/12/10 07:12:59;;;;;;;19.65;11.48;;;3.10;99.90;;;;;;5115283;27;20156;-58
2021/12/10 07:15:25;;;;;;;20.42;10.90;;;3.10;99.90;;;;;;5115014;28;20404;-60
2021/12/10 07:17:52;;;;;;;19.75;11.23;;;3.00;99.90;;;;;;5113892;28;20048;-57
2021/12/10 07:20:21;;;;;;;18.92;11.77;;;3.00;99.90;;;;;;5115359;28;20043;-59
2021/12/10 07:22:47;;;;;;;14.02;9.73;;;2.90;99.90;;;;;;5130603;27;20122;-59
2021/12/10 07:25:14;;;;;;;17.42;11.90;;;2.90;99.90;;;;;;5114650;27;20112;-60
2021/12/10 07:27:40;;;;;;;18.33;12.10;;;2.80;99.90;;;;;;5113279;28;20043;-59
2021/12/10 07:30:07;;;;;;;14.70;9.23;;;2.80;99.90;;;;;;5113514;28;20048;-57
2021/12/10 07:32:34;;;;;;;16.10;11.00;;;2.80;99.90;;;;;;5113291;28;20066;-60
2021/12/10 07:35:00;;;;;;;19.55;11.73;;;2.70;99.90;;;;;;5114818;28;20130;-59
2021/12/10 07:37:26;;;;;;;22.45;13.63;;;2.70;99.90;;;;;;5114507;28;20128;-60
2021/12/10 07:39:51;;;;;;;19.92;10.98;;;2.60;99.90;;;;;;5114541;28;20047;-60
2021/12/10 07:42:17;;;;;;;21.92;11.80;;;2.60;99.90;;;;;;5114725;28;20048;-59
2021/12/10 07:44:43;;;;;;;20.48;10.43;;;2.60;99.90;;;;;;5113416;28;20506;-59
2021/12/10 07:47:13;;;;;;;18.08;10.93;;;2.60;99.90;;;;;;5113636;28;20409;-59
2021/12/10 07:49:43;;;;;;;15.32;10.18;;;2.50;99.90;;;;;;5096824;28;20082;-58
2021/12/10 07:52:23;;;;;;;19.50;12.45;;;2.50;99.90;;;;;;5114746;28;20046;-59
2021/12/10 07:54:49;;;;;;;19.60;10.45;;;2.50;99.90;;;;;;5114379;28;20397;-59
2021/12/10 07:57:17;;;;;;;15.13;9.48;;;2.50;99.90;;;;;;5113162;28;20544;-59
2021/12/10 07:59:44;;;;;;;18.15;11.55;;;2.50;99.90;;;;;;5113141;28;20054;-60
2021/12/10 08:02:11;;;;;;;16.77;8.18;;;2.40;99.90;;;;;;5114097;28;20495;-60
2021/12/10 08:04:37;;;;;;;18.02;9.88;;;2.40;99.90;;;;;;5113815;28;20124;-59
2021/12/10 08:07:05;;;;;;;13.10;9.00;;;2.40;99.90;;;;;;5114145;28;20065;-59
2021/12/10 08:09:31;;;;;;;16.10;9.68;;;2.40;99.90;;;;;;5113280;28;20104;-59
2021/12/10 08:11:56;;;;;;;14.85;7.63;;;2.40;99.90;;;;;;5112953;28;20051;-59
2021/12/10 08:14:22;;;;;;;19.40;10.13;;;2.50;99.90;;;;;;5114301;28;20090;-59
2021/12/10 08:16:48;;;;;;;18.15;11.13;;;2.60;99.90;;;;;;5112457;28;20055;-59
2021/12/10 08:19:14;;;;;;;19.52;9.88;;;2.40;99.90;;;;;;5130099;27;20047;-59
2021/12/10 08:21:42;;;;;;;13.00;9.25;;;2.40;99.90;;;;;;5113621;28;20047;-59
2021/12/10 08:24:09;;;;;;;14.68;9.73;;;2.40;99.90;;;;;;5114099;28;20078;-59
2021/12/10 08:26:35;;;;;;;13.32;8.65;;;2.40;99.90;;;;;;5113754;28;20050;-60
2021/12/10 08:29:03;;;;;;;16.65;8.70;;;2.40;99.90;;;;;;5113480;27;20048;-60
2021/12/10 08:31:29;;;;;;;16.23;9.38;;;2.40;99.90;;;;;;5113751;28;20047;-56
2021/12/10 08:33:55;;;;;;;17.48;9.55;;;2.40;99.90;;;;;;5113543;28;20079;-58
2021/12/10 08:36:22;;;;;;;19.00;9.80;;;2.40;99.90;;;;;;5112327;28;20046;-59
2021/12/10 08:38:48;;;;;;;21.13;11.73;;;2.40;99.90;;;;;;5113436;28;20042;-59
2021/12/10 08:41:23;;;;;;;16.90;10.95;;;2.40;99.90;;;;;;5113521;28;20036;-57
2021/12/10 08:43:50;;;;;;;16.20;9.60;;;2.40;99.90;;;;;;5113239;28;20044;-58
2021/12/10 08:46:17;;;;;;;16.80;9.40;;;2.50;99.90;;;;;;5112220;28;20488;-58
2021/12/10 08:48:44;;;;;;;15.07;8.40;;;2.50;99.90;;;;;;5113205;28;20047;-58
2021/12/10 08:51:19;;;;;;;14.38;8.90;;;2.50;99.90;;;;;;5112261;28;20043;-58
2021/12/10 08:53:45;;;;;;;16.13;9.15;;;2.50;99.90;;;;;;5095072;28;20047;-58
2021/12/10 08:56:11;;;;;;;14.18;7.72;;;2.60;99.90;;;;;;5113095;28;20135;-58
2021/12/10 08:58:37;;;;;;;10.98;7.03;;;2.60;99.90;;;;;;5111720;28;20086;-59
2021/12/10 09:01:14;;;;;;;16.33;9.57;;;2.60;99.90;;;;;;5112327;27;20051;-59
2021/12/10 09:03:42;;;;;;;14.18;8.05;;;2.70;99.90;;;;;;5109762;28;20554;-58
2021/12/10 09:06:09;;;;;;;18.50;8.40;;;2.70;99.90;;;;;;5110065;28;20130;-58
2021/12/10 09:08:36;;;;;;;12.60;7.78;;;2.70;99.90;;;;;;5112383;28;20507;-59
2021/12/10 09:11:02;;;;;;;12.40;8.25;;;2.80;99.90;;;;;;5111414;28;20146;-59
2021/12/10 09:13:28;;;;;;;13.50;7.93;;;2.80;99.90;;;;;;5112440;28;20047;-59
2021/12/10 09:15:59;;;;;;;14.10;7.80;;;2.80;99.90;;;;;;5112886;28;20044;-58
2021/12/10 09:18:26;;;;;;;14.05;6.50;;;2.90;99.90;;;;;;5112669;28;20053;-60
2021/12/10 09:20:55;;;;;;;12.35;6.55;;;2.90;99.90;;;;;;5112069;28;20537;-60
2021/12/10 09:23:25;;;;;;;14.95;8.15;;;2.90;99.90;;;;;;5112358;28;20045;-58
2021/12/10 09:25:54;;;;;;;12.93;7.25;;;3.20;99.90;;;;;;5112558;28;20103;-59
2021/12/10 09:28:20;;;;;;;11.85;7.43;;;3.00;99.90;;;;;;5111412;28;20058;-60
2021/12/10 09:30:49;;;;;;;11.57;7.15;;;3.10;99.90;;;;;;5111824;28;20130;-63
2021/12/10 09:33:16;;;;;;;13.35;6.93;;;3.10;99.90;;;;;;5111899;28;20055;-59
2021/12/10 09:35:42;;;;;;;9.25;5.95;;;3.10;99.90;;;;;;5113012;28;20055;-59
2021/12/10 09:38:08;;;;;;;11.77;6.85;;;3.20;99.90;;;;;;5111177;28;20397;-60
2021/12/10 09:40:42;;;;;;;12.10;6.35;;;3.20;99.90;;;;;;5112232;28;20497;-59
2021/12/10 09:43:09;;;;;;;10.40;7.50;;;3.20;99.90;;;;;;5110486;28;20043;-59
2021/12/10 09:45:39;;;;;;;10.80;7.95;;;3.20;99.90;;;;;;5109326;28;20048;-59
2021/12/10 09:48:07;;;;;;;15.70;7.53;;;3.20;99.90;;;;;;5126959;27;20079;-59
2021/12/10 09:50:37;;;;;;;12.77;6.70;;;3.30;99.90;;;;;;5110980;28;20151;-61
2021/12/10 09:53:05;;;;;;;14.00;9.25;;;3.30;99.90;;;;;;5110571;28;20058;-60
2021/12/10 09:55:31;;;;;;;13.32;7.30;;;3.30;99.90;;;;;;5111433;28;20401;-59
2021/12/10 09:57:57;;;;;;;13.60;8.95;;;3.30;99.90;;;;;;5109741;28;20048;-59
2021/12/10 10:00:38;;;;;;;15.05;8.77;;;3.30;99.90;;;;;;5110957;28;20613;-59
2021/12/10 10:03:06;;;;;;;12.50;7.75;;;3.30;99.90;;;;;;5109251;28;20040;-59
2021/12/10 10:05:33;;;;;;;10.27;7.70;;;3.40;99.90;;;;;;5111106;28;20385;-59
2021/12/10 10:08:03;;;;;;;10.88;7.25;;;3.40;99.90;;;;;;5110618;28;20047;-59
2021/12/10 10:10:30;;;;;;;10.15;6.82;;;3.50;99.90;;;;;;5111157;28;20054;-59
2021/12/10 10:12:57;;;;;;;12.02;7.32;;;3.50;99.90;;;;;;5109423;28;20048;-59
2021/12/10 10:15:27;;;;;;;10.82;7.28;;;3.50;99.90;;;;;;5111343;28;20097;-59
2021/12/10 10:17:55;;;;;;;15.30;6.95;;;3.60;99.90;;;;;;5126569;27;20051;-59
2021/12/10 10:20:22;;;;;;;12.88;7.45;;;3.60;99.90;;;;;;5126398;28;20130;-58
2021/12/10 10:22:49;;;;;;;13.85;7.55;;;3.70;99.90;;;;;;5110516;28;20039;-59
2021/12/10 10:25:18;;;;;;;9.75;5.88;;;3.70;99.90;;;;;;5110516;28;20044;-59
2021/12/10 10:27:45;;;;;;;12.45;6.53;;;3.80;99.90;;;;;;5110930;28;20047;-60
2021/12/10 10:30:22;;;;;;;9.93;7.07;;;3.80;99.90;;;;;;5110331;28;20051;-59
2021/12/10 10:32:49;;;;;;;13.00;6.18;;;3.80;99.90;;;;;;5111170;28;20282;-59
2021/12/10 10:35:22;;;;;;;9.23;5.22;;;3.90;99.90;;;;;;5110408;28;20252;-59
2021/12/10 10:37:49;;;;;;;11.70;6.72;;;4.00;99.90;;;;;;5110973;28;20085;-59
2021/12/10 10:40:20;;;;;;;14.55;5.88;;;4.00;99.90;;;;;;5111072;28;20286;-59
2021/12/10 10:42:47;;;;;;;9.68;6.13;;;4.10;99.90;;;;;;5114925;28;20044;-59
2021/12/10 10:45:17;;;;;;;9.75;4.53;;;4.10;99.90;;;;;;5130360;27;20055;-59
2021/12/10 10:47:45;;;;;;;10.55;5.35;;;4.10;99.90;;;;;;5114731;28;20096;-60
2021/12/10 10:50:18;;;;;;;13.60;5.57;;;4.20;99.90;;;;;;5114448;28;20050;-59
2021/12/10 10:52:48;;;;;;;10.65;6.70;;;4.20;99.90;;;;;;5113224;28;20151;-59
2021/12/10 10:55:28;;;;;;;10.13;6.00;;;4.30;99.90;;;;;;5113109;28;20070;-59
2021/12/10 10:57:59;;;;;;;12.90;6.65;;;4.30;99.90;;;;;;5114877;28;20075;-59
2021/12/10 11:00:29;;;;;;;8.48;5.93;;;4.30;99.90;;;;;;5113323;28;20123;-59
2021/12/10 11:02:59;;;;;;;7.88;5.00;;;4.40;99.90;;;;;;5114225;28;20051;-59
2021/12/10 11:05:25;;;;;;;11.13;5.85;;;4.50;99.90;;;;;;5114243;28;20131;-59
2021/12/10 11:07:55;;;;;;;9.85;5.47;;;4.50;99.90;;;;;;5114565;28;20587;-59
2021/12/10 11:10:43;;;;;;;10.40;5.70;;;4.50;99.90;;;;;;5114258;28;20051;-59
2021/12/10 11:13:14;;;;;;;10.15;4.57;;;4.50;99.90;;;;;;5113650;28;20050;-59
2021/12/10 11:16:03;;;;;;;7.60;4.00;;;4.50;99.90;;;;;;5113022;28;20393;-59
2021/12/10 11:18:44;;;;;;;9.05;4.78;;;4.60;99.90;;;;;;5114497;28;20127;-59
2021/12/10 11:21:10;;;;;;;6.85;4.65;;;4.60;99.90;;;;;;5095745;28;20063;-59
2021/12/10 11:23:38;;;;;;;9.77;4.85;;;4.60;99.90;;;;;;5114022;28;20489;-59
2021/12/10 11:26:06;;;;;;;12.57;4.38;;;4.70;99.90;;;;;;5113638;28;20108;-59
2021/12/10 11:28:36;;;;;;;11.80;5.43;;;4.60;99.90;;;;;;5114330;28;20063;-59
2021/12/10 11:31:15;;;;;;;7.95;4.82;;;4.70;99.90;;;;;;5112594;28;20044;-61
2021/12/10 11:33:49;;;;;;;8.02;4.63;;;4.70;99.90;;;;;;5113906;27;20043;-59
2021/12/10 11:36:23;;;;;;;7.18;4.47;;;4.70;99.90;;;;;;5113671;28;20054;-59
2021/12/10 11:38:56;;;;;;;7.30;3.93;;;4.70;99.90;;;;;;5113159;28;20427;-59
2021/12/10 11:41:27;;;;;;;7.22;4.53;;;4.60;99.90;;;;;;5113514;28;20050;-59
2021/12/10 11:44:18;;;;;;;7.88;4.40;;;4.70;99.90;;;;;;5113694;28;20051;-59
2021/12/10 11:49:39;;;;;;;8.32;5.15;;;4.60;99.90;;;;;;5112303;28;20465;-59
2021/12/10 11:52:25;;;;;;;7.82;5.05;;;4.60;99.90;;;;;;5094509;28;20161;-59
2021/12/10 11:54:59;;;;;;;6.72;4.20;;;4.60;99.90;;;;;;5111600;28;20442;-58
2021/12/10 11:57:33;;;;;;;8.30;4.47;;;4.60;99.90;;;;;;5113510;28;20359;-58
2021/12/10 12:00:04;;;;;;;7.40;4.05;;;4.70;99.90;;;;;;5113818;28;20050;-58
2021/12/10 12:02:34;;;;;;;9.63;4.30;;;4.70;99.90;;;;;;5111513;27;20051;-59
2021/12/10 12:05:11;;;;;;;7.53;4.70;;;4.70;99.90;;;;;;5110804;28;20229;-59
2021/12/10 12:07:49;;;;;;;10.02;5.45;;;4.70;99.90;;;;;;5112273;28;20217;-59
2021/12/10 12:10:23;;;;;;;9.15;5.07;;;4.70;99.90;;;;;;5113270;28;20047;-58
2021/12/10 12:12:51;;;;;;;10.70;4.70;;;4.70;99.90;;;;;;5111849;28;20051;-59
2021/12/10 12:15:37;;;;;;;9.15;4.43;;;4.70;99.90;;;;;;5111206;28;20043;-59
2021/12/10 12:18:09;;;;;;;9.38;4.63;;;4.80;99.90;;;;;;5112746;28;20044;-59
2021/12/10 12:26:50;;;;;;;5.68;3.83;;;4.70;99.90;;;;;;5112417;28;20505;-59
2021/12/10 12:29:17;;;;;;;9.50;4.85;;;4.80;99.90;;;;;;5112368;28;20492;-58
2021/12/10 12:31:50;;;;;;;7.75;4.68;;;4.80;99.90;;;;;;5112890;28;20501;-59
2021/12/10 12:34:27;;;;;;;7.65;4.43;;;4.80;99.90;;;;;;5111256;28;20419;-59
2021/12/10 12:37:05;;;;;;;7.85;4.30;;;4.80;99.90;;;;;;5110908;28;20313;-59
2021/12/10 12:39:34;;;;;;;10.82;5.57;;;4.80;99.90;;;;;;5111151;28;20047;-59
2021/12/10 12:42:04;;;;;;;8.10;5.35;;;4.80;99.90;;;;;;5112835;28;20056;-58
2021/12/10 12:44:39;;;;;;;7.70;5.10;;;4.80;99.90;;;;;;5112379;28;20131;-59
2021/12/10 12:47:19;;;;;;;8.77;4.60;;;4.80;99.90;;;;;;5113187;28;20047;-59
2021/12/10 12:49:47;;;;;;;8.57;4.63;;;4.70;99.90;;;;;;5112098;28;20055;-60
2021/12/10 12:52:15;;;;;;;7.05;4.13;;;4.80;99.90;;;;;;5113012;28;20083;-60
2021/12/10 12:55:03;;;;;;;8.13;4.35;;;4.70;99.90;;;;;;5129271;27;20055;-59
2021/12/10 12:57:55;;;;;;;7.50;4.90;;;4.70;99.90;;;;;;5111676;28;20115;-60
2021/12/10 13:00:29;;;;;;;9.60;5.22;;;4.70;99.90;;;;;;5080047;28;20063;-59
2021/12/10 13:03:00;;;;;;;8.00;4.65;;;4.70;99.90;;;;;;5111948;28;20467;-60
2021/12/10 13:05:41;;;;;;;8.23;4.88;;;4.70;99.90;;;;;;5111859;28;20059;-59
2021/12/10 13:08:15;;;;;;;8.30;4.97;;;4.60;99.90;;;;;;5113246;28;20055;-60
2021/12/10 13:10:50;;;;;;;7.57;5.57;;;4.60;99.90;;;;;;5113155;28;20048;-59
2021/12/10 13:13:29;;;;;;;5.82;3.55;;;4.60;99.90;;;;;;5111580;28;20277;-60